sensor_id;sensor_type;location;lat;lon;timestamp;pressure;altitude;pressure_sealevel;temperature;humidity
27202;BME280;14717;46.924;15.474;2023-05-01T00:01:49;98105.69;;;8.95;89.50
27202;BME280;14717;46.924;15.474;2023-05-01T00:04:14;98103.50;;;8.67;90.91
27202;BME280;14717;46.924;15.474;2023-05-01T00:06:41;98098.81;;;8.58;91.92
27202;BME280;14717;46.924;15.474;2023-05-01T00:09:06;98104.06;;;8.79;91.05
27202;BME280;14717;46.924;15.474;2023-05-01T00:11:31;98107.63;;;8.75;90.35
27202;BME280;14717;46.924;15.474;2023-05-01T00:13:58;98104.34;;;8.68;91.19
27202;BME280;14717;46.924;15.474;2023-05-01T00:16:23;98093.03;;;8.59;91.22
27202;BME280;14717;46.924;15.474;2023-05-01T00:18:49;98086.69;;;8.44;90.49
27202;BME280;14717;46.924;15.474;2023-05-01T00:21:14;98079.81;;;8.66;91.10
27202;BME280;14717;46.924;15.474;2023-05-01T00:23:40;98089.97;;;8.46;90.97
27202;BME280;14717;46.924;15.474;2023-05-01T00:26:05;98090.84;;;8.47;91.74
27202;BME280;14717;46.924;15.474;2023-05-01T00:28:32;98086.94;;;8.43;91.94
27202;BME280;14717;46.924;15.474;2023-05-01T00:30:57;98074.84;;;8.48;90.91
27202;BME280;14717;46.924;15.474;2023-05-01T00:33:22;98077.34;;;8.45;90.76
27202;BME280;14717;46.924;15.474;2023-05-01T00:35:48;98073.19;;;8.38;91.18
27202;BME280;14717;46.924;15.474;2023-05-01T00:38:13;98081.19;;;8.44;90.68
27202;BME280;14717;46.924;15.474;2023-05-01T00:40:43;98081.44;;;8.33;91.13
27202;BME280;14717;46.924;15.474;2023-05-01T00:43:09;98083.56;;;8.06;92.57
27202;BME280;14717;46.924;15.474;2023-05-01T00:45:35;98084.38;;;8.06;93.19
27202;BME280;14717;46.924;15.474;2023-05-01T00:48:00;98076.50;;;8.25;93.43
27202;BME280;14717;46.924;15.474;2023-05-01T00:50:27;98080.91;;;8.41;92.25
27202;BME280;14717;46.924;15.474;2023-05-01T00:52:52;98075.28;;;8.01;92.91
27202;BME280;14717;46.924;15.474;2023-05-01T00:55:17;98072.25;;;7.98;95.55
27202;BME280;14717;46.924;15.474;2023-05-01T00:57:43;98080.88;;;8.21;94.30
27202;BME280;14717;46.924;15.474;2023-05-01T01:00:09;98079.19;;;8.15;94.22
27202;BME280;14717;46.924;15.474;2023-05-01T01:02:36;98086.03;;;8.03;94.35
27202;BME280;14717;46.924;15.474;2023-05-01T01:05:02;98083.81;;;8.00;94.11
27202;BME280;14717;46.924;15.474;2023-05-01T01:10:52;98075.59;;;8.09;94.64
27202;BME280;14717;46.924;15.474;2023-05-01T01:15:53;98080.25;;;8.04;92.44
27202;BME280;14717;46.924;15.474;2023-05-01T01:18:30;98081.66;;;8.11;93.07
27202;BME280;14717;46.924;15.474;2023-05-01T01:35:17;98066.63;;;7.58;95.46
27202;BME280;14717;46.924;15.474;2023-05-01T01:43:17;98072.16;;;7.63;95.95
27202;BME280;14717;46.924;15.474;2023-05-01T01:45:46;98069.13;;;7.60;95.17
27202;BME280;14717;46.924;15.474;2023-05-01T01:48:17;98072.91;;;7.49;95.04
27202;BME280;14717;46.924;15.474;2023-05-01T01:50:46;98064.88;;;7.37;95.39
27202;BME280;14717;46.924;15.474;2023-05-01T01:53:17;98071.50;;;7.36;96.00
27202;BME280;14717;46.924;15.474;2023-05-01T01:55:43;98069.25;;;7.28;97.35
27202;BME280;14717;46.924;15.474;2023-05-01T01:58:11;98072.00;;;7.28;98.60
27202;BME280;14717;46.924;15.474;2023-05-01T02:00:38;98074.75;;;7.28;98.42
27202;BME280;14717;46.924;15.474;2023-05-01T02:03:08;98070.59;;;7.26;99.43
27202;BME280;14717;46.924;15.474;2023-05-01T02:05:35;98065.28;;;7.10;100.00
27202;BME280;14717;46.924;15.474;2023-05-01T02:08:03;98059.50;;;7.06;100.00
27202;BME280;14717;46.924;15.474;2023-05-01T02:10:30;98059.25;;;7.13;100.00
27202;BME280;14717;46.924;15.474;2023-05-01T02:12:57;98060.69;;;7.20;100.00
27202;BME280;14717;46.924;15.474;2023-05-01T02:15:24;98059.84;;;7.19;99.44
27202;BME280;14717;46.924;15.474;2023-05-01T02:17:52;98062.06;;;7.22;99.13
27202;BME280;14717;46.924;15.474;2023-05-01T02:20:19;98067.25;;;7.19;97.88
27202;BME280;14717;46.924;15.474;2023-05-01T02:22:46;98062.63;;;7.24;97.59
27202;BME280;14717;46.924;15.474;2023-05-01T02:25:13;98060.72;;;7.25;97.45
27202;BME280;14717;46.924;15.474;2023-05-01T02:27:44;98050.53;;;7.20;96.89
27202;BME280;14717;46.924;15.474;2023-05-01T02:30:11;98052.22;;;7.26;96.60
27202;BME280;14717;46.924;15.474;2023-05-01T02:32:36;98052.53;;;7.35;96.44
27202;BME280;14717;46.924;15.474;2023-05-01T02:35:02;98042.59;;;7.29;95.73
27202;BME280;14717;46.924;15.474;2023-05-01T02:37:28;98049.63;;;7.05;97.31
27202;BME280;14717;46.924;15.474;2023-05-01T02:39:55;98053.72;;;7.03;97.51
27202;BME280;14717;46.924;15.474;2023-05-01T02:42:23;98059.25;;;7.13;97.58
27202;BME280;14717;46.924;15.474;2023-05-01T02:45:05;98050.50;;;7.16;97.91
27202;BME280;14717;46.924;15.474;2023-05-01T02:47:36;98058.44;;;7.12;97.22
27202;BME280;14717;46.924;15.474;2023-05-01T02:50:03;98058.41;;;7.07;97.68
27202;BME280;14717;46.924;15.474;2023-05-01T02:52:30;98060.66;;;7.15;98.21
27202;BME280;14717;46.924;15.474;2023-05-01T02:54:56;98058.13;;;7.04;97.22
27202;BME280;14717;46.924;15.474;2023-05-01T02:57:22;98058.22;;;7.19;97.16
27202;BME280;14717;46.924;15.474;2023-05-01T02:59:47;98056.69;;;6.96;96.33
27202;BME280;14717;46.924;15.474;2023-05-01T03:02:13;98059.88;;;6.83;98.66
27202;BME280;14717;46.924;15.474;2023-05-01T03:04:40;98065.09;;;6.80;99.17
27202;BME280;14717;46.924;15.474;2023-05-01T03:07:06;98062.63;;;6.83;99.94
27202;BME280;14717;46.924;15.474;2023-05-01T03:09:31;98053.09;;;6.91;99.83
27202;BME280;14717;46.924;15.474;2023-05-01T03:11:56;98053.09;;;6.91;99.54
27202;BME280;14717;46.924;15.474;2023-05-01T03:14:22;98049.81;;;6.94;99.79
27202;BME280;14717;46.924;15.474;2023-05-01T03:16:47;98056.94;;;6.95;99.40
27202;BME280;14717;46.924;15.474;2023-05-01T03:19:13;98052.38;;;7.05;98.56
27202;BME280;14717;46.924;15.474;2023-05-01T03:21:38;98056.19;;;7.04;98.26
27202;BME280;14717;46.924;15.474;2023-05-01T03:24:04;98057.13;;;7.24;98.02
27202;BME280;14717;46.924;15.474;2023-05-01T03:26:30;98063.34;;;7.05;97.05
27202;BME280;14717;46.924;15.474;2023-05-01T03:28:57;98057.84;;;7.05;97.26
27202;BME280;14717;46.924;15.474;2023-05-01T03:31:22;98052.59;;;6.99;97.01
27202;BME280;14717;46.924;15.474;2023-05-01T03:33:48;98058.56;;;6.86;97.96
27202;BME280;14717;46.924;15.474;2023-05-01T03:36:14;98053.00;;;6.76;98.37
27202;BME280;14717;46.924;15.474;2023-05-01T03:38:40;98063.47;;;6.84;99.18
27202;BME280;14717;46.924;15.474;2023-05-01T03:41:06;98050.88;;;6.88;98.80
27202;BME280;14717;46.924;15.474;2023-05-01T03:43:31;98060.22;;;6.87;98.81
27202;BME280;14717;46.924;15.474;2023-05-01T03:45:57;98049.84;;;6.99;98.09
27202;BME280;14717;46.924;15.474;2023-05-01T03:48:22;98052.09;;;7.07;97.60
27202;BME280;14717;46.924;15.474;2023-05-01T03:50:49;98056.44;;;6.98;97.44
27202;BME280;14717;46.924;15.474;2023-05-01T03:53:15;98053.66;;;6.93;97.99
27202;BME280;14717;46.924;15.474;2023-05-01T03:55:40;98055.84;;;6.91;98.03
27202;BME280;14717;46.924;15.474;2023-05-01T03:58:06;98053.59;;;6.83;98.01
27202;BME280;14717;46.924;15.474;2023-05-01T04:00:32;98061.84;;;6.88;97.63
27202;BME280;14717;46.924;15.474;2023-05-01T04:02:57;98054.16;;;6.90;97.95
27202;BME280;14717;46.924;15.474;2023-05-01T04:05:23;98054.78;;;6.97;97.73
27202;BME280;14717;46.924;15.474;2023-05-01T04:07:49;98050.41;;;7.01;97.38
27202;BME280;14717;46.924;15.474;2023-05-01T04:10:15;98049.81;;;6.94;97.74
27202;BME280;14717;46.924;15.474;2023-05-01T04:12:41;98052.03;;;6.97;97.47
27202;BME280;14717;46.924;15.474;2023-05-01T04:15:07;98053.44;;;7.04;98.23
27202;BME280;14717;46.924;15.474;2023-05-01T04:17:34;98049.88;;;7.04;98.60
27202;BME280;14717;46.924;15.474;2023-05-01T04:20:01;98054.84;;;7.07;99.27
27202;BME280;14717;46.924;15.474;2023-05-01T04:22:26;98053.25;;;7.16;100.00
27202;BME280;14717;46.924;15.474;2023-05-01T04:24:52;98052.19;;;7.21;100.00
27202;BME280;14717;46.924;15.474;2023-05-01T04:27:18;98049.75;;;7.30;100.00
27202;BME280;14717;46.924;15.474;2023-05-01T04:29:44;98050.91;;;7.44;100.00
27202;BME280;14717;46.924;15.474;2023-05-01T04:32:09;98049.31;;;7.53;99.96
27202;BME280;14717;46.924;15.474;2023-05-01T04:34:35;98047.97;;;7.65;99.80
27202;BME280;14717;46.924;15.474;2023-05-01T04:37:00;98051.28;;;7.72;99.50
27202;BME280;14717;46.924;15.474;2023-05-01T04:39:27;98056.50;;;7.73;99.62
27202;BME280;14717;46.924;15.474;2023-05-01T04:41:52;98059.00;;;7.75;99.80
27202;BME280;14717;46.924;15.474;2023-05-01T04:44:17;98065.34;;;7.85;99.55
27202;BME280;14717;46.924;15.474;2023-05-01T04:46:43;98061.22;;;7.83;99.44
27202;BME280;14717;46.924;15.474;2023-05-01T04:49:08;98066.16;;;7.76;99.27
27202;BME280;14717;46.924;15.474;2023-05-01T04:51:34;98071.66;;;7.81;98.70
27202;BME280;14717;46.924;15.474;2023-05-01T04:53:59;98081.06;;;8.04;98.34
27202;BME280;14717;46.924;15.474;2023-05-01T04:56:25;98080.34;;;8.24;98.15
27202;BME280;14717;46.924;15.474;2023-05-01T04:58:50;98085.31;;;8.42;97.23
27202;BME280;14717;46.924;15.474;2023-05-01T05:01:16;98084.47;;;8.51;96.30
27202;BME280;14717;46.924;15.474;2023-05-01T05:03:42;98088.34;;;8.60;95.28
27202;BME280;14717;46.924;15.474;2023-05-01T05:06:07;98090.28;;;8.69;95.33
27202;BME280;14717;46.924;15.474;2023-05-01T05:08:32;98096.34;;;8.76;94.86
27202;BME280;14717;46.924;15.474;2023-05-01T05:10:59;98094.41;;;8.82;93.96
27202;BME280;14717;46.924;15.474;2023-05-01T05:13:25;98097.72;;;8.84;93.90
27202;BME280;14717;46.924;15.474;2023-05-01T05:15:50;98111.75;;;8.92;93.46
27202;BME280;14717;46.924;15.474;2023-05-01T05:18:15;98107.91;;;9.03;93.94
27202;BME280;14717;46.924;15.474;2023-05-01T05:20:41;98108.16;;;9.06;94.23
27202;BME280;14717;46.924;15.474;2023-05-01T05:23:06;98105.41;;;9.06;94.36
27202;BME280;14717;46.924;15.474;2023-05-01T05:25:32;98103.47;;;9.07;95.67
27202;BME280;14717;46.924;15.474;2023-05-01T05:27:57;98094.94;;;9.08;94.33
27202;BME280;14717;46.924;15.474;2023-05-01T05:30:25;98109.53;;;9.14;92.33
27202;BME280;14717;46.924;15.474;2023-05-01T05:32:50;98110.91;;;9.11;92.71
27202;BME280;14717;46.924;15.474;2023-05-01T05:35:16;98107.31;;;9.21;92.00
27202;BME280;14717;46.924;15.474;2023-05-01T05:37:42;98107.63;;;9.09;91.57
27202;BME280;14717;46.924;15.474;2023-05-01T05:40:08;98109.84;;;9.02;90.46
27202;BME280;14717;46.924;15.474;2023-05-01T05:42:33;98105.38;;;9.26;90.78
27202;BME280;14717;46.924;15.474;2023-05-01T05:44:59;98100.94;;;9.45;91.69
27202;BME280;14717;46.924;15.474;2023-05-01T05:47:24;98098.09;;;9.70;89.85
27202;BME280;14717;46.924;15.474;2023-05-01T05:49:50;98090.81;;;9.98;89.47
27202;BME280;14717;46.924;15.474;2023-05-01T05:52:16;98089.53;;;10.34;87.99
27202;BME280;14717;46.924;15.474;2023-05-01T05:54:41;98091.53;;;10.62;85.39
27202;BME280;14717;46.924;15.474;2023-05-01T05:57:07;98092.72;;;10.51;84.77
27202;BME280;14717;46.924;15.474;2023-05-01T05:59:33;98092.66;;;10.94;84.25
27202;BME280;14717;46.924;15.474;2023-05-01T06:01:58;98087.28;;;11.07;84.11
27202;BME280;14717;46.924;15.474;2023-05-01T06:04:24;98090.53;;;11.14;81.64
27202;BME280;14717;46.924;15.474;2023-05-01T06:06:50;98080.34;;;11.38;81.59
27202;BME280;14717;46.924;15.474;2023-05-01T06:09:15;98084.53;;;11.63;81.22
27202;BME280;14717;46.924;15.474;2023-05-01T06:11:43;98088.28;;;11.49;79.42
27202;BME280;14717;46.924;15.474;2023-05-01T06:14:08;98075.38;;;11.35;80.50
27202;BME280;14717;46.924;15.474;2023-05-01T06:16:34;98085.59;;;11.11;81.88
27202;BME280;14717;46.924;15.474;2023-05-01T06:19:00;98081.59;;;11.50;82.16
27202;BME280;14717;46.924;15.474;2023-05-01T06:21:25;98080.97;;;11.81;79.50
27202;BME280;14717;46.924;15.474;2023-05-01T06:23:51;98072.00;;;11.43;78.96
27202;BME280;14717;46.924;15.474;2023-05-01T06:26:16;98072.09;;;11.33;80.73
27202;BME280;14717;46.924;15.474;2023-05-01T06:28:41;98078.03;;;11.45;81.33
27202;BME280;14717;46.924;15.474;2023-05-01T06:31:07;98079.75;;;11.41;80.60
27202;BME280;14717;46.924;15.474;2023-05-01T06:33:32;98075.06;;;11.88;76.37
27202;BME280;14717;46.924;15.474;2023-05-01T06:35:58;98066.59;;;11.79;75.40
27202;BME280;14717;46.924;15.474;2023-05-01T06:38:25;98076.50;;;12.27;77.32
27202;BME280;14717;46.924;15.474;2023-05-01T06:40:50;98066.16;;;12.32;75.34
27202;BME280;14717;46.924;15.474;2023-05-01T06:43:16;98070.00;;;12.54;74.00
27202;BME280;14717;46.924;15.474;2023-05-01T06:45:41;98073.56;;;12.36;72.16
27202;BME280;14717;46.924;15.474;2023-05-01T06:48:07;98074.03;;;12.43;70.75
27202;BME280;14717;46.924;15.474;2023-05-01T06:50:32;98083.69;;;12.46;72.09
27202;BME280;14717;46.924;15.474;2023-05-01T06:52:57;98069.97;;;12.73;71.57
27202;BME280;14717;46.924;15.474;2023-05-01T06:55:25;98070.91;;;13.18;71.65
27202;BME280;14717;46.924;15.474;2023-05-01T06:57:50;98075.50;;;13.54;70.40
27202;BME280;14717;46.924;15.474;2023-05-01T07:00:16;98070.56;;;13.64;68.40
27202;BME280;14717;46.924;15.474;2023-05-01T07:02:43;98068.91;;;13.77;67.28
27202;BME280;14717;46.924;15.474;2023-05-01T07:05:08;98063.66;;;13.62;64.49
27202;BME280;14717;46.924;15.474;2023-05-01T07:07:34;98068.09;;;13.90;65.65
27202;BME280;14717;46.924;15.474;2023-05-01T07:10:00;98065.47;;;14.11;66.83
27202;BME280;14717;46.924;15.474;2023-05-01T07:12:26;98063.84;;;14.46;64.99
27202;BME280;14717;46.924;15.474;2023-05-01T07:14:51;98065.41;;;13.98;64.50
27202;BME280;14717;46.924;15.474;2023-05-01T07:17:17;98072.81;;;14.29;66.31
27202;BME280;14717;46.924;15.474;2023-05-01T07:19:42;98070.09;;;14.64;61.72
27202;BME280;14717;46.924;15.474;2023-05-01T07:22:07;98076.72;;;14.98;65.08
27202;BME280;14717;46.924;15.474;2023-05-01T07:24:33;98065.41;;;15.30;63.02
27202;BME280;14717;46.924;15.474;2023-05-01T07:26:58;98063.47;;;15.39;61.51
27202;BME280;14717;46.924;15.474;2023-05-01T07:29:24;98062.66;;;15.69;60.59
27202;BME280;14717;46.924;15.474;2023-05-01T07:31:49;98063.22;;;15.49;57.41
27202;BME280;14717;46.924;15.474;2023-05-01T07:34:14;98056.78;;;15.40;57.37
27202;BME280;14717;46.924;15.474;2023-05-01T07:36:41;98060.09;;;15.20;58.77
27202;BME280;14717;46.924;15.474;2023-05-01T07:39:06;98057.00;;;15.52;56.84
27202;BME280;14717;46.924;15.474;2023-05-01T07:41:32;98060.69;;;15.39;57.66
27202;BME280;14717;46.924;15.474;2023-05-01T07:43:58;98054.78;;;15.71;57.86
27202;BME280;14717;46.924;15.474;2023-05-01T07:46:23;98056.03;;;15.86;56.83
27202;BME280;14717;46.924;15.474;2023-05-01T07:48:49;98061.59;;;15.48;56.41
27202;BME280;14717;46.924;15.474;2023-05-01T07:51:14;98061.16;;;15.63;55.82
27202;BME280;14717;46.924;15.474;2023-05-01T07:53:41;98061.66;;;15.65;56.28
27202;BME280;14717;46.924;15.474;2023-05-01T07:56:07;98051.66;;;15.64;56.09
27202;BME280;14717;46.924;15.474;2023-05-01T07:58:33;98056.66;;;15.83;55.80
27202;BME280;14717;46.924;15.474;2023-05-01T08:01:00;98052.56;;;16.28;53.84
27202;BME280;14717;46.924;15.474;2023-05-01T08:03:29;98052.34;;;16.16;52.76
27202;BME280;14717;46.924;15.474;2023-05-01T08:05:55;98062.13;;;16.35;54.75
27202;BME280;14717;46.924;15.474;2023-05-01T08:08:20;98051.81;;;16.61;54.55
27202;BME280;14717;46.924;15.474;2023-05-01T08:10:46;98058.72;;;16.97;52.02
27202;BME280;14717;46.924;15.474;2023-05-01T08:13:12;98055.78;;;16.94;51.32
27202;BME280;14717;46.924;15.474;2023-05-01T08:15:37;98057.91;;;17.05;52.54
27202;BME280;14717;46.924;15.474;2023-05-01T08:18:06;98056.56;;;16.05;53.89
27202;BME280;14717;46.924;15.474;2023-05-01T08:20:31;98062.88;;;15.80;52.94
27202;BME280;14717;46.924;15.474;2023-05-01T08:22:56;98052.00;;;15.71;55.94
27202;BME280;14717;46.924;15.474;2023-05-01T08:25:22;98053.44;;;15.98;53.27
27202;BME280;14717;46.924;15.474;2023-05-01T08:27:47;98058.63;;;16.30;53.99
27202;BME280;14717;46.924;15.474;2023-05-01T08:30:13;98049.69;;;16.66;53.22
27202;BME280;14717;46.924;15.474;2023-05-01T08:32:38;98049.06;;;16.86;52.13
27202;BME280;14717;46.924;15.474;2023-05-01T08:35:04;98051.47;;;16.54;52.24
27202;BME280;14717;46.924;15.474;2023-05-01T08:37:29;98049.00;;;16.53;51.82
27202;BME280;14717;46.924;15.474;2023-05-01T08:39:55;98040.47;;;16.58;51.83
27202;BME280;14717;46.924;15.474;2023-05-01T08:42:20;98047.38;;;16.52;51.29
27202;BME280;14717;46.924;15.474;2023-05-01T08:44:46;98042.13;;;16.59;52.05
27202;BME280;14717;46.924;15.474;2023-05-01T08:49:39;98047.72;;;16.75;51.84
27202;BME280;14717;46.924;15.474;2023-05-01T08:52:05;98043.97;;;16.80;51.55
27202;BME280;14717;46.924;15.474;2023-05-01T08:54:32;98054.47;;;16.91;49.88
27202;BME280;14717;46.924;15.474;2023-05-01T08:57:02;98043.44;;;17.37;50.86
27202;BME280;14717;46.924;15.474;2023-05-01T08:59:29;98043.63;;;17.40;50.22
27202;BME280;14717;46.924;15.474;2023-05-01T09:02:01;98048.34;;;17.40;50.22
27202;BME280;14717;46.924;15.474;2023-05-01T09:04:36;98034.78;;;17.75;49.23
27202;BME280;14717;46.924;15.474;2023-05-01T09:07:02;98033.41;;;17.90;49.56
27202;BME280;14717;46.924;15.474;2023-05-01T09:09:28;98035.47;;;18.09;48.33
27202;BME280;14717;46.924;15.474;2023-05-01T09:11:56;98036.81;;;18.03;47.37
27202;BME280;14717;46.924;15.474;2023-05-01T09:14:23;98043.34;;;18.07;47.13
27202;BME280;14717;46.924;15.474;2023-05-01T09:16:49;98040.63;;;17.90;48.83
27202;BME280;14717;46.924;15.474;2023-05-01T09:19:15;98031.25;;;17.95;47.11
27202;BME280;14717;46.924;15.474;2023-05-01T09:21:41;98035.78;;;18.16;48.67
27202;BME280;14717;46.924;15.474;2023-05-01T09:24:06;98035.63;;;18.41;47.23
27202;BME280;14717;46.924;15.474;2023-05-01T09:26:32;98038.00;;;18.31;47.37
27202;BME280;14717;46.924;15.474;2023-05-01T09:29:01;98038.97;;;17.98;47.50
27202;BME280;14717;46.924;15.474;2023-05-01T09:31:28;98038.47;;;18.33;49.76
27202;BME280;14717;46.924;15.474;2023-05-01T09:33:58;98039.81;;;18.56;46.44
27202;BME280;14717;46.924;15.474;2023-05-01T09:36:28;98033.22;;;18.60;47.18
27202;BME280;14717;46.924;15.474;2023-05-01T09:38:59;98028.38;;;19.10;47.61
27202;BME280;14717;46.924;15.474;2023-05-01T09:41:25;98027.53;;;18.69;47.22
27202;BME280;14717;46.924;15.474;2023-05-01T09:43:55;98028.81;;;18.71;48.64
27202;BME280;14717;46.924;15.474;2023-05-01T09:46:22;98024.94;;;18.84;46.86
27202;BME280;14717;46.924;15.474;2023-05-01T09:48:55;98015.09;;;18.58;48.68
27202;BME280;14717;46.924;15.474;2023-05-01T09:51:27;98019.47;;;17.81;49.72
27202;BME280;14717;46.924;15.474;2023-05-01T09:53:57;98019.53;;;18.01;49.88
27202;BME280;14717;46.924;15.474;2023-05-01T09:56:28;98017.97;;;18.49;48.74
27202;BME280;14717;46.924;15.474;2023-05-01T09:58:54;98013.19;;;18.50;48.49
27202;BME280;14717;46.924;15.474;2023-05-01T10:01:40;98009.91;;;18.68;47.94
27202;BME280;14717;46.924;15.474;2023-05-01T10:04:06;98014.75;;;18.59;47.48
27202;BME280;14717;46.924;15.474;2023-05-01T10:06:36;98013.22;;;18.70;47.94
27202;BME280;14717;46.924;15.474;2023-05-01T10:09:03;98009.50;;;18.98;46.57
27202;BME280;14717;46.924;15.474;2023-05-01T10:11:46;98014.47;;;19.01;46.82
27202;BME280;14717;46.924;15.474;2023-05-01T10:14:12;98008.81;;;18.81;48.68
27202;BME280;14717;46.924;15.474;2023-05-01T10:16:38;98008.91;;;18.52;47.23
27202;BME280;14717;46.924;15.474;2023-05-01T10:19:04;98017.22;;;18.40;46.33
27202;BME280;14717;46.924;15.474;2023-05-01T10:21:32;98013.34;;;18.74;48.03
27202;BME280;14717;46.924;15.474;2023-05-01T10:24:00;98006.38;;;18.79;46.81
27202;BME280;14717;46.924;15.474;2023-05-01T10:26:32;98003.00;;;19.26;45.28
27202;BME280;14717;46.924;15.474;2023-05-01T10:28:59;98003.81;;;19.27;45.10
27202;BME280;14717;46.924;15.474;2023-05-01T10:31:26;97997.38;;;19.15;48.07
27202;BME280;14717;46.924;15.474;2023-05-01T10:33:56;98000.44;;;19.33;44.94
27202;BME280;14717;46.924;15.474;2023-05-01T10:36:37;97994.91;;;19.13;45.67
27202;BME280;14717;46.924;15.474;2023-05-01T10:39:05;97996.38;;;19.11;46.23
27202;BME280;14717;46.924;15.474;2023-05-01T10:44:22;97998.41;;;19.42;44.35
27202;BME280;14717;46.924;15.474;2023-05-01T10:46:48;97994.31;;;19.52;43.50
27202;BME280;14717;46.924;15.474;2023-05-01T10:49:14;97985.69;;;19.13;45.56
27202;BME280;14717;46.924;15.474;2023-05-01T10:51:59;97982.25;;;19.39;44.70
27202;BME280;14717;46.924;15.474;2023-05-01T10:54:30;97985.22;;;19.55;43.65
27202;BME280;14717;46.924;15.474;2023-05-01T10:57:01;97977.63;;;19.55;43.00
27202;BME280;14717;46.924;15.474;2023-05-01T11:02:28;97970.06;;;19.23;42.79
27202;BME280;14717;46.924;15.474;2023-05-01T11:04:54;97970.59;;;19.49;42.46
27202;BME280;14717;46.924;15.474;2023-05-01T11:07:21;97966.75;;;19.54;44.69
27202;BME280;14717;46.924;15.474;2023-05-01T11:09:50;97956.09;;;19.35;44.86
27202;BME280;14717;46.924;15.474;2023-05-01T11:15:11;97958.75;;;19.32;43.21
27202;BME280;14717;46.924;15.474;2023-05-01T11:20:07;97946.28;;;19.41;43.89
27202;BME280;14717;46.924;15.474;2023-05-01T11:22:34;97942.41;;;19.90;41.84
27202;BME280;14717;46.924;15.474;2023-05-01T11:25:17;97954.72;;;19.53;43.35
27202;BME280;14717;46.924;15.474;2023-05-01T11:27:52;97948.19;;;19.49;42.09
27202;BME280;14717;46.924;15.474;2023-05-01T11:30:18;97931.78;;;18.95;45.49
27202;BME280;14717;46.924;15.474;2023-05-01T11:32:45;97928.31;;;19.42;44.19
27202;BME280;14717;46.924;15.474;2023-05-01T11:35:22;97926.47;;;19.70;44.92
27202;BME280;14717;46.924;15.474;2023-05-01T11:37:49;97932.72;;;19.20;45.75
27202;BME280;14717;46.924;15.474;2023-05-01T11:40:28;97922.69;;;18.98;45.58
27202;BME280;14717;46.924;15.474;2023-05-01T11:43:07;97923.75;;;19.26;44.32
27202;BME280;14717;46.924;15.474;2023-05-01T11:45:36;97925.81;;;19.17;44.59
27202;BME280;14717;46.924;15.474;2023-05-01T11:48:01;97913.56;;;19.33;44.28
27202;BME280;14717;46.924;15.474;2023-05-01T11:50:35;97913.91;;;19.32;44.67
27202;BME280;14717;46.924;15.474;2023-05-01T11:53:01;97910.09;;;19.36;44.44
27202;BME280;14717;46.924;15.474;2023-05-01T11:55:31;97906.47;;;19.48;43.73
27202;BME280;14717;46.924;15.474;2023-05-01T11:57:56;97918.75;;;19.55;43.27
27202;BME280;14717;46.924;15.474;2023-05-01T12:00:33;97909.78;;;19.73;43.92
27202;BME280;14717;46.924;15.474;2023-05-01T12:03:05;97917.38;;;19.85;43.38
27202;BME280;14717;46.924;15.474;2023-05-01T12:05:31;97911.97;;;19.80;43.31
27202;BME280;14717;46.924;15.474;2023-05-01T12:10:33;97912.09;;;19.60;45.02
27202;BME280;14717;46.924;15.474;2023-05-01T12:12:59;97904.19;;;19.73;43.76
27202;BME280;14717;46.924;15.474;2023-05-01T12:15:26;97904.41;;;19.80;43.23
27202;BME280;14717;46.924;15.474;2023-05-01T12:17:51;97915.75;;;19.84;43.63
27202;BME280;14717;46.924;15.474;2023-05-01T12:20:33;97898.25;;;19.87;44.65
27202;BME280;14717;46.924;15.474;2023-05-01T12:22:58;97903.56;;;19.68;45.62
27202;BME280;14717;46.924;15.474;2023-05-01T12:25:29;97896.81;;;19.57;44.95
27202;BME280;14717;46.924;15.474;2023-05-01T12:27:56;97902.63;;;19.76;44.54
27202;BME280;14717;46.924;15.474;2023-05-01T12:30:25;97887.94;;;19.91;45.22
27202;BME280;14717;46.924;15.474;2023-05-01T12:32:55;97897.72;;;19.73;45.22
27202;BME280;14717;46.924;15.474;2023-05-01T12:35:21;97892.13;;;19.73;44.59
27202;BME280;14717;46.924;15.474;2023-05-01T12:37:47;97887.94;;;19.91;44.97
27202;BME280;14717;46.924;15.474;2023-05-01T12:40:13;97886.28;;;19.90;45.18
27202;BME280;14717;46.924;15.474;2023-05-01T12:42:40;97884.41;;;20.06;47.87
27202;BME280;14717;46.924;15.474;2023-05-01T12:45:06;97880.56;;;19.86;46.00
27202;BME280;14717;46.924;15.474;2023-05-01T12:47:37;97881.06;;;19.88;44.54
27202;BME280;14717;46.924;15.474;2023-05-01T12:50:02;97884.91;;;19.72;44.97
27202;BME280;14717;46.924;15.474;2023-05-01T12:52:28;97879.28;;;19.72;44.31
27202;BME280;14717;46.924;15.474;2023-05-01T12:55:04;97875.06;;;20.13;44.29
27202;BME280;14717;46.924;15.474;2023-05-01T12:57:30;97866.31;;;20.42;43.56
27202;BME280;14717;46.924;15.474;2023-05-01T13:00:02;97868.84;;;20.59;43.24
27202;BME280;14717;46.924;15.474;2023-05-01T13:02:32;97861.47;;;20.93;43.42
27202;BME280;14717;46.924;15.474;2023-05-01T13:05:08;97867.75;;;20.63;42.25
27202;BME280;14717;46.924;15.474;2023-05-01T13:07:35;97865.72;;;20.48;43.57
27202;BME280;14717;46.924;15.474;2023-05-01T13:10:02;97857.50;;;20.67;43.22
27202;BME280;14717;46.924;15.474;2023-05-01T13:12:29;97854.28;;;20.81;44.23
27202;BME280;14717;46.924;15.474;2023-05-01T13:14:56;97851.22;;;20.47;43.13
27202;BME280;14717;46.924;15.474;2023-05-01T13:17:29;97849.50;;;20.30;42.87
27202;BME280;14717;46.924;15.474;2023-05-01T13:20:00;97846.75;;;20.18;42.86
27202;BME280;14717;46.924;15.474;2023-05-01T13:22:33;97839.75;;;20.12;43.69
27202;BME280;14717;46.924;15.474;2023-05-01T13:25:00;97831.75;;;20.53;44.08
27202;BME280;14717;46.924;15.474;2023-05-01T13:27:27;97831.22;;;20.48;44.18
27202;BME280;14717;46.924;15.474;2023-05-01T13:29:54;97827.63;;;20.63;43.75
27202;BME280;14717;46.924;15.474;2023-05-01T13:32:20;97827.31;;;20.25;44.85
27202;BME280;14717;46.924;15.474;2023-05-01T13:34:45;97830.56;;;20.39;44.22
27202;BME280;14717;46.924;15.474;2023-05-01T13:37:11;97820.19;;;20.55;44.72